Terminal Aerodrome Forecast
Issued by NWS Kansas City/Pleasant Hill, MO

Home | Current Version | Previous Version | Text Only | Print | Product List | Glossary On
Versions: 1 2 3 4 5 6 7 8 9 10 11 12 13 14 15 16 17 18
234
FTUS43 KEAX 242320
TAFMCI
TAF
KMCI 242320Z 2500/2524 18016G26KT P6SM SCT250
     FM250200 17010KT P6SM FEW200
     FM251400 18012G22KT P6SM SCT040 BKN120=

USA.gov is the U.S. government's official web portal to all federal, state and local government web resources and services.